createdAt,value
2022-09-20T00:01:12.979Z,9.57
2022-09-20T00:03:42.548Z,9.63
2022-09-20T00:06:12.503Z,9.66
2022-09-20T00:08:41.333Z,9.52
2022-09-20T00:11:13.135Z,9.63
2022-09-20T00:13:41.255Z,9.59
2022-09-20T00:16:12.805Z,9.60
2022-09-20T00:18:41.158Z,9.66
2022-09-20T00:21:13.988Z,9.74
2022-09-20T00:23:41.583Z,9.69
2022-09-20T00:26:10.947Z,9.67
2022-09-20T00:28:38.575Z,9.61
2022-09-20T00:31:06.781Z,9.59
2022-09-20T00:33:48.682Z,9.58
2022-09-20T00:36:17.443Z,9.59
2022-09-20T00:38:45.210Z,9.60
2022-09-20T00:41:14.879Z,9.59
2022-09-20T00:43:44.655Z,9.53
2022-09-20T00:46:24.203Z,9.50
2022-09-20T00:48:56.972Z,9.49
2022-09-20T00:51:29.847Z,9.47
2022-09-20T00:54:00.986Z,9.47
2022-09-20T00:56:34.103Z,9.41
2022-09-20T00:59:07.325Z,9.31
2022-09-20T01:01:36.421Z,9.28
2022-09-20T01:04:04.748Z,9.23
2022-09-20T01:06:35.154Z,9.19
2022-09-20T01:09:07.797Z,9.15
2022-09-20T01:11:39.159Z,9.11
2022-09-20T01:14:07.202Z,9.07
2022-09-20T01:16:35.306Z,9.01
2022-09-20T01:19:12.986Z,9.11
2022-09-20T01:21:40.882Z,9.20
2022-09-20T01:24:17.455Z,9.19
2022-09-20T01:27:00.275Z,9.17
2022-09-20T01:29:40.952Z,9.17
2022-09-20T01:32:14.928Z,9.15
2022-09-20T01:34:48.103Z,9.20
2022-09-20T01:37:22.931Z,9.22
2022-09-20T01:39:58.661Z,9.19
2022-09-20T01:42:33.583Z,9.17
2022-09-20T01:45:11.566Z,9.16
2022-09-20T01:47:45.387Z,9.17
2022-09-20T01:50:22.158Z,8.92
2022-09-20T01:53:11.313Z,8.51
2022-09-20T01:56:12.449Z,8.18
2022-09-20T01:59:25.269Z,8.18
2022-09-20T02:02:07.872Z,7.96
2022-09-20T02:05:00.423Z,7.82
2022-09-20T02:07:57.693Z,7.79
2022-09-20T02:10:59.746Z,7.75
2022-09-20T02:13:32.479Z,7.68
2022-09-20T02:16:14.507Z,7.66
2022-09-20T02:19:06.179Z,7.68
2022-09-20T02:21:40.298Z,7.59
2022-09-20T02:24:23.306Z,7.63
2022-09-20T02:27:08.791Z,7.53
2022-09-20T02:29:45.932Z,7.65
2022-09-20T02:32:29.199Z,7.68
2022-09-20T02:35:14.988Z,7.61
2022-09-20T02:37:58.853Z,7.53
2022-09-20T02:40:53.464Z,7.67
2022-09-20T02:43:31.509Z,7.65
2022-09-20T02:46:04.570Z,7.70
2022-09-20T02:48:50.924Z,7.69
2022-09-20T02:51:27.066Z,7.68
2022-09-20T02:54:06.178Z,7.73
2022-09-20T02:56:44.006Z,7.90
2022-09-20T02:59:25.112Z,8.01
2022-09-20T03:02:04.674Z,8.07
2022-09-20T03:04:43.723Z,8.20
2022-09-20T03:07:22.143Z,8.33
2022-09-20T03:10:05.158Z,8.43
2022-09-20T03:12:44.667Z,8.50
2022-09-20T03:15:21.056Z,8.54
2022-09-20T03:17:53.688Z,8.45
2022-09-20T03:20:35.379Z,8.39
2022-09-20T03:23:14.719Z,8.40
2022-09-20T03:25:55.854Z,8.26
2022-09-20T03:28:49.197Z,8.34
2022-09-20T03:31:28.802Z,8.37
2022-09-20T03:34:08.971Z,8.37
2022-09-20T03:36:53.325Z,8.42
2022-09-20T03:39:40.024Z,8.49
2022-09-20T03:42:17.487Z,8.54
2022-09-20T03:45:04.274Z,8.61
2022-09-20T03:47:51.019Z,8.66
2022-09-20T03:50:35.100Z,8.65
2022-09-20T03:53:29.362Z,8.72
2022-09-20T03:56:26.650Z,8.72
2022-09-20T03:59:22.155Z,8.74
2022-09-20T04:02:11.281Z,8.78
2022-09-20T04:04:47.195Z,8.81
2022-09-20T04:07:20.403Z,8.76
2022-09-20T04:10:04.240Z,8.69
2022-09-20T04:12:45.486Z,8.72
2022-09-20T04:15:36.621Z,8.68
2022-09-20T04:18:12.556Z,8.69
2022-09-20T04:20:47.139Z,8.74
2022-09-20T04:23:26.569Z,8.82
2022-09-20T04:25:55.465Z,8.90
2022-09-20T04:28:29.600Z,8.91
2022-09-20T04:31:04.934Z,8.87
2022-09-20T04:33:38.259Z,8.88
2022-09-20T04:36:29.404Z,8.93
2022-09-20T04:39:05.134Z,8.92
2022-09-20T04:42:11.437Z,8.92
2022-09-20T04:45:08.365Z,8.93
2022-09-20T04:48:00.772Z,8.94
2022-09-20T04:50:57.169Z,8.95
2022-09-20T04:53:45.560Z,8.96
2022-09-20T04:56:21.883Z,9.02
2022-09-20T04:59:00.774Z,8.98
2022-09-20T05:02:09.842Z,9.04
2022-09-20T05:05:16.669Z,9.07
2022-09-20T05:08:40.592Z,9.05
2022-09-20T05:11:31.936Z,9.05
2022-09-20T05:14:24.684Z,9.05
2022-09-20T05:17:15.018Z,9.03
2022-09-20T05:19:58.473Z,9.07
2022-09-20T05:22:54.953Z,9.09
2022-09-20T05:25:38.358Z,9.15
2022-09-20T05:28:11.219Z,9.17
2022-09-20T05:30:45.447Z,9.23
2022-09-20T05:33:42.208Z,9.27
2022-09-20T05:36:18.819Z,9.32
2022-09-20T05:38:50.867Z,9.44
2022-09-20T05:41:32.273Z,9.48
2022-09-20T05:44:09.725Z,9.50
2022-09-20T05:46:47.455Z,9.57
2022-09-20T05:49:34.462Z,9.60
2022-09-20T05:52:23.867Z,9.59
2022-09-20T05:55:19.606Z,9.52
2022-09-20T05:58:04.104Z,9.55
2022-09-20T06:00:41.041Z,9.53
2022-09-20T06:03:19.719Z,9.59
2022-09-20T06:05:59.052Z,9.67
2022-09-20T06:08:42.176Z,9.74
2022-09-20T06:11:34.427Z,9.81
2022-09-20T06:14:15.383Z,9.86
2022-09-20T06:16:53.680Z,9.89
2022-09-20T06:19:32.777Z,9.96
2022-09-20T06:22:11.284Z,9.93
2022-09-20T06:24:44.347Z,9.87
2022-09-20T06:27:19.242Z,9.85
2022-09-20T06:29:54.164Z,9.89
2022-09-20T06:32:22.350Z,9.93
2022-09-20T06:34:50.801Z,9.86
2022-09-20T06:37:51.486Z,9.94
2022-09-20T06:40:50.699Z,10.03
2022-09-20T06:43:19.252Z,9.99
2022-09-20T06:45:47.387Z,9.98
2022-09-20T06:48:15.530Z,9.98
2022-09-20T06:50:45.365Z,10.02
2022-09-20T06:53:18.921Z,10.09
2022-09-20T06:55:47.806Z,10.11
2022-09-20T06:58:15.417Z,9.97
2022-09-20T07:00:43.552Z,9.87
2022-09-20T07:03:12.649Z,9.74
2022-09-20T07:05:41.186Z,9.79
2022-09-20T07:08:08.800Z,9.74
2022-09-20T07:10:38.610Z,9.80
2022-09-20T07:13:06.730Z,10.02
2022-09-20T07:15:35.831Z,10.14
2022-09-20T07:18:03.723Z,10.29
2022-09-20T07:20:31.760Z,10.43
2022-09-20T07:22:59.365Z,10.62
2022-09-20T07:25:27.461Z,10.72
2022-09-20T07:27:57.298Z,10.69
2022-09-20T07:30:25.253Z,10.74
2022-09-20T07:32:52.878Z,11.00
2022-09-20T07:35:20.865Z,10.76
2022-09-20T07:37:48.462Z,11.00
2022-09-20T07:40:17.490Z,10.76
2022-09-20T07:42:46.002Z,11.08
2022-09-20T07:45:15.985Z,10.97
2022-09-20T07:47:44.851Z,10.82
2022-09-20T07:50:13.117Z,10.77
2022-09-20T07:52:40.727Z,10.71
2022-09-20T07:55:09.949Z,10.97
2022-09-20T07:57:38.202Z,10.87
2022-09-20T08:00:09.286Z,11.01
2022-09-20T08:02:45.360Z,11.17
2022-09-20T08:05:13.412Z,11.33
2022-09-20T08:07:41.035Z,11.62
2022-09-20T08:10:09.385Z,11.74
2022-09-20T08:15:25.878Z,11.61
2022-09-20T08:17:54.998Z,11.46
2022-09-20T08:20:23.056Z,10.96
2022-09-20T08:23:12.629Z,11.36
2022-09-20T08:25:39.718Z,11.26
2022-09-20T08:28:07.327Z,11.03
2022-09-20T08:30:35.048Z,11.27
2022-09-20T08:33:06.935Z,11.68
2022-09-20T08:35:38.258Z,11.57
2022-09-20T08:40:56.395Z,12.72
2022-09-20T08:43:31.168Z,12.95
2022-09-20T08:46:05.414Z,13.36
2022-09-20T08:48:35.031Z,13.98
2022-09-20T08:51:07.032Z,14.18
2022-09-20T08:53:35.420Z,13.40
2022-09-20T08:56:04.707Z,12.89
2022-09-20T08:58:32.421Z,13.10
2022-09-20T09:01:00.745Z,12.64
2022-09-20T09:03:29.220Z,12.80
2022-09-20T09:05:59.719Z,12.43
2022-09-20T09:08:30.967Z,12.24
2022-09-20T09:11:08.766Z,12.11
2022-09-20T09:13:45.366Z,11.74
2022-09-20T09:16:22.329Z,12.00
2022-09-20T09:18:51.751Z,11.77
2022-09-20T09:21:23.454Z,11.69
2022-09-20T09:23:54.375Z,11.57
2022-09-20T09:26:24.429Z,11.97
2022-09-20T09:29:10.216Z,11.50
2022-09-20T09:31:39.755Z,11.97
2022-09-20T09:34:24.512Z,12.08
2022-09-20T09:36:55.424Z,11.71
2022-09-20T09:39:26.448Z,11.74
2022-09-20T09:41:55.397Z,11.88
2022-09-20T09:44:25.581Z,11.96
2022-09-20T09:46:54.454Z,11.92
2022-09-20T09:49:24.190Z,11.91
2022-09-20T09:52:06.967Z,12.12
2022-09-20T09:54:37.219Z,11.86
2022-09-20T09:57:20.523Z,12.28
2022-09-20T10:00:07.522Z,12.39
2022-09-20T10:03:24.845Z,12.90
2022-09-20T10:06:08.354Z,12.99
2022-09-20T10:08:46.290Z,13.66
2022-09-20T10:11:32.382Z,13.70
2022-09-20T10:14:13.434Z,13.42
2022-09-20T10:17:00.631Z,13.72
2022-09-20T10:19:50.314Z,13.72
2022-09-20T10:22:29.104Z,13.65
2022-09-20T10:25:10.231Z,13.82
2022-09-20T10:27:52.498Z,13.64
2022-09-20T10:30:23.419Z,13.93
2022-09-20T10:33:01.655Z,13.95
2022-09-20T10:35:46.834Z,13.86
2022-09-20T10:38:19.655Z,13.47
2022-09-20T10:41:25.839Z,13.69
2022-09-20T10:44:06.178Z,12.95
2022-09-20T10:46:46.179Z,13.56
2022-09-20T10:49:32.584Z,13.84
2022-09-20T10:52:14.793Z,14.28
2022-09-20T10:55:03.053Z,14.65
2022-09-20T10:58:08.287Z,14.64
2022-09-20T11:00:47.270Z,13.97
2022-09-20T11:03:30.133Z,13.55
2022-09-20T11:06:12.759Z,13.41
2022-09-20T11:08:42.206Z,13.21
2022-09-20T11:11:14.152Z,13.08
2022-09-20T11:13:48.438Z,13.25
2022-09-20T11:16:23.328Z,13.38
2022-09-20T11:18:58.889Z,13.89
2022-09-20T11:21:32.479Z,13.44
2022-09-20T11:24:06.435Z,13.60
2022-09-20T11:26:40.037Z,13.33
2022-09-20T11:29:20.801Z,13.56
2022-09-20T11:31:51.712Z,13.77
2022-09-20T11:34:25.633Z,13.33
2022-09-20T11:36:58.736Z,13.46
2022-09-20T11:39:31.343Z,13.43
2022-09-20T11:42:02.565Z,13.35
2022-09-20T11:44:42.094Z,13.13
2022-09-20T11:47:36.600Z,13.32
2022-09-20T11:51:06.835Z,13.36
2022-09-20T11:57:46.847Z,13.70
2022-09-20T12:00:17.731Z,13.71
2022-09-20T12:02:49.727Z,13.83
2022-09-20T12:05:32.138Z,14.38
2022-09-20T12:08:02.932Z,14.63
2022-09-20T12:10:35.154Z,14.87
2022-09-20T12:13:05.572Z,14.86
2022-09-20T12:15:36.886Z,14.64
2022-09-20T12:18:39.522Z,14.92
2022-09-20T12:21:15.277Z,14.86
2022-09-20T12:24:00.835Z,14.40
2022-09-20T12:26:55.811Z,14.79
2022-09-20T12:29:55.691Z,15.11
2022-09-20T12:32:55.296Z,15.07
2022-09-20T12:36:00.562Z,14.63
2022-09-20T12:38:34.905Z,14.40
2022-09-20T12:41:07.806Z,14.41
2022-09-20T12:43:39.817Z,14.04
2022-09-20T12:46:12.036Z,14.44
2022-09-20T12:48:41.732Z,14.45
2022-09-20T12:51:40.338Z,14.21
2022-09-20T12:54:12.073Z,14.48
2022-09-20T12:56:46.211Z,14.57
2022-09-20T12:59:23.268Z,14.15
2022-09-20T13:01:51.545Z,14.20
2022-09-20T13:04:52.955Z,14.23
2022-09-20T13:07:44.723Z,14.47
2022-09-20T13:10:32.233Z,14.39
2022-09-20T13:13:05.823Z,14.22
2022-09-20T13:15:35.612Z,14.13
2022-09-20T13:18:04.299Z,14.18
2022-09-20T13:20:35.137Z,14.05
2022-09-20T13:23:05.192Z,13.90
2022-09-20T13:25:34.982Z,13.91
2022-09-20T13:28:10.326Z,14.37
2022-09-20T13:30:41.827Z,14.57
2022-09-20T13:33:18.492Z,14.60
2022-09-20T13:35:49.898Z,14.77
2022-09-20T13:38:25.313Z,15.03
2022-09-20T13:40:54.132Z,15.34
2022-09-20T13:43:29.249Z,15.31
2022-09-20T13:45:58.878Z,15.48
2022-09-20T13:48:28.470Z,15.13
2022-09-20T13:50:58.296Z,15.19
2022-09-20T13:53:41.621Z,15.20
2022-09-20T13:56:15.127Z,14.84
2022-09-20T13:58:43.636Z,14.69
2022-09-20T14:01:24.102Z,14.69
2022-09-20T14:03:51.870Z,14.41
2022-09-20T14:06:28.075Z,14.95
2022-09-20T14:08:57.618Z,14.38
2022-09-20T14:11:28.165Z,14.34
2022-09-20T14:13:58.140Z,14.22
2022-09-20T14:16:30.979Z,14.36
2022-09-20T14:19:00.342Z,14.00
2022-09-20T14:21:33.011Z,13.81
2022-09-20T14:24:04.411Z,13.53
2022-09-20T14:26:34.716Z,13.24
2022-09-20T14:29:30.394Z,13.60
2022-09-20T14:32:01.120Z,13.77
2022-09-20T14:34:29.520Z,14.01
2022-09-20T14:37:07.517Z,14.01
2022-09-20T14:39:46.248Z,14.12
2022-09-20T14:42:21.124Z,14.19
2022-09-20T14:44:53.429Z,14.31
2022-09-20T14:47:28.643Z,14.50
2022-09-20T14:49:58.023Z,14.39
2022-09-20T14:52:45.359Z,14.42
2022-09-20T14:55:28.570Z,15.05
2022-09-20T14:58:03.129Z,15.49
2022-09-20T15:00:32.513Z,15.67
2022-09-20T15:03:08.290Z,15.14
2022-09-20T15:05:36.286Z,15.50
2022-09-20T15:08:05.233Z,16.11
2022-09-20T15:10:33.334Z,15.84
2022-09-20T15:13:00.917Z,15.73
2022-09-20T15:15:29.362Z,15.82
2022-09-20T15:17:57.012Z,15.32
2022-09-20T15:20:25.432Z,15.44
2022-09-20T15:22:53.397Z,15.75
2022-09-20T15:25:22.629Z,16.16
2022-09-20T15:27:50.824Z,16.93
2022-09-20T15:30:20.934Z,17.18
2022-09-20T15:32:48.570Z,17.60
2022-09-20T15:35:16.269Z,17.72
2022-09-20T15:37:43.853Z,18.24
2022-09-20T15:40:12.367Z,18.46
2022-09-20T15:42:41.755Z,18.64
2022-09-20T15:45:11.293Z,18.58
2022-09-20T15:47:39.714Z,18.09
2022-09-20T15:50:09.642Z,17.72
2022-09-20T15:52:39.826Z,17.12
2022-09-20T15:55:09.453Z,16.68
2022-09-20T15:57:37.066Z,16.48
2022-09-20T16:00:07.192Z,16.40
2022-09-20T16:02:36.118Z,16.72
2022-09-20T16:05:05.899Z,16.71
2022-09-20T16:07:33.710Z,16.49
2022-09-20T16:10:01.466Z,16.24
2022-09-20T16:12:29.053Z,16.12
2022-09-20T16:14:57.006Z,16.03
2022-09-20T16:17:39.869Z,15.92
2022-09-20T16:20:08.802Z,15.89
2022-09-20T16:22:36.435Z,15.80
2022-09-20T16:25:06.047Z,15.81
2022-09-20T16:27:34.677Z,15.80
2022-09-20T16:30:03.437Z,15.63
2022-09-20T16:32:32.383Z,15.44
2022-09-20T16:35:04.076Z,15.31
2022-09-20T16:37:32.676Z,15.14
2022-09-20T16:40:00.882Z,15.02
2022-09-20T16:42:29.715Z,14.87
2022-09-20T16:44:57.693Z,14.82
2022-09-20T16:47:26.234Z,14.79
2022-09-20T16:49:56.597Z,14.75
2022-09-20T16:52:26.374Z,14.73
2022-09-20T16:54:54.817Z,14.66
2022-09-20T16:57:23.139Z,14.58
2022-09-20T16:59:51.827Z,14.51
2022-09-20T17:02:19.437Z,14.42
2022-09-20T17:04:47.097Z,14.36
2022-09-20T17:07:16.830Z,14.30
2022-09-20T17:09:44.445Z,14.21
2022-09-20T17:12:13.940Z,14.10
2022-09-20T17:14:41.806Z,14.06
2022-09-20T17:17:09.920Z,13.97
2022-09-20T17:19:37.502Z,13.87
2022-09-20T17:22:07.449Z,13.81
2022-09-20T17:24:36.396Z,13.76
2022-09-20T17:27:04.739Z,13.66
2022-09-20T17:29:32.344Z,13.65
2022-09-20T17:32:00.598Z,13.60
2022-09-20T17:34:29.459Z,13.54
2022-09-20T17:36:57.381Z,13.49
2022-09-20T17:39:25.229Z,13.46
2022-09-20T17:41:54.187Z,13.41
2022-09-20T17:44:21.784Z,13.33
2022-09-20T17:46:50.708Z,13.31
2022-09-20T17:49:19.937Z,13.33
2022-09-20T17:51:49.617Z,13.28
2022-09-20T17:54:17.721Z,13.25
2022-09-20T17:56:47.394Z,13.23
2022-09-20T17:59:17.766Z,13.19
2022-09-20T18:01:48.149Z,13.15
2022-09-20T18:04:15.857Z,13.10
2022-09-20T18:06:47.362Z,13.11
2022-09-20T18:09:16.423Z,13.09
2022-09-20T18:11:46.741Z,13.09
2022-09-20T18:14:16.603Z,13.07
2022-09-20T18:16:45.179Z,13.05
2022-09-20T18:19:14.096Z,13.05
2022-09-20T18:21:41.758Z,13.00
2022-09-20T18:24:11.615Z,12.95
2022-09-20T18:26:40.422Z,12.90
2022-09-20T18:29:11.162Z,12.84
2022-09-20T18:31:43.455Z,12.81
2022-09-20T18:34:18.125Z,12.77
2022-09-20T18:36:48.157Z,12.73
2022-09-20T18:39:15.766Z,12.70
2022-09-20T18:41:44.743Z,12.69
2022-09-20T18:44:13.574Z,12.65
2022-09-20T18:46:43.103Z,12.62
2022-09-20T18:49:14.912Z,12.57
2022-09-20T18:51:43.889Z,12.54
2022-09-20T18:54:12.665Z,12.48
2022-09-20T18:56:42.594Z,12.44
2022-09-20T18:59:15.852Z,12.44
2022-09-20T19:02:14.600Z,12.13
2022-09-20T19:05:11.864Z,11.91
2022-09-20T19:07:49.944Z,11.87
2022-09-20T19:10:25.997Z,11.87
2022-09-20T19:13:01.111Z,11.74
2022-09-20T19:15:41.695Z,11.56
2022-09-20T19:18:24.050Z,11.45
2022-09-20T19:20:57.600Z,11.40
2022-09-20T19:23:42.855Z,11.36
2022-09-20T19:26:20.104Z,11.35
2022-09-20T19:28:48.965Z,11.30
2022-09-20T19:31:23.069Z,11.28
2022-09-20T19:33:54.800Z,11.28
2022-09-20T19:36:23.731Z,11.29
2022-09-20T19:39:03.810Z,11.28
2022-09-20T19:41:41.520Z,11.31
2022-09-20T19:44:22.805Z,11.30
2022-09-20T19:47:02.691Z,11.33
2022-09-20T19:49:42.746Z,11.34
2022-09-20T19:52:13.329Z,11.32
2022-09-20T19:54:46.267Z,11.32
2022-09-20T19:57:20.158Z,11.33
2022-09-20T19:59:49.109Z,11.28
2022-09-20T20:02:17.736Z,11.27
2022-09-20T20:04:47.252Z,11.28
2022-09-20T20:07:27.752Z,11.28
2022-09-20T20:10:03.526Z,11.28
2022-09-20T20:12:36.472Z,11.23
2022-09-20T20:15:17.833Z,11.17
2022-09-20T20:17:54.420Z,11.13
2022-09-20T20:20:33.766Z,11.09
2022-09-20T20:23:22.098Z,11.10
2022-09-20T20:25:59.942Z,11.08
2022-09-20T20:28:27.804Z,11.05
2022-09-20T20:30:59.208Z,11.04
2022-09-20T20:33:27.590Z,11.01
2022-09-20T20:35:57.632Z,11.00
2022-09-20T20:38:26.585Z,10.98
2022-09-20T20:41:04.724Z,10.98
2022-09-20T20:43:32.974Z,10.74
2022-09-20T20:46:01.146Z,10.70
2022-09-20T20:48:28.941Z,10.59
2022-09-20T20:51:05.934Z,10.53
2022-09-20T20:53:34.497Z,10.51
2022-09-20T20:56:03.718Z,10.51
2022-09-20T20:58:33.261Z,10.51
2022-09-20T21:01:08.792Z,10.54
2022-09-20T21:03:36.845Z,10.57
2022-09-20T21:06:06.340Z,10.53
2022-09-20T21:08:35.851Z,10.52
2022-09-20T21:11:06.101Z,10.56
2022-09-20T21:13:35.209Z,10.59
2022-09-20T21:16:05.067Z,10.59
2022-09-20T21:18:34.648Z,10.37
2022-09-20T21:21:03.530Z,10.47
2022-09-20T21:23:36.237Z,10.51
2022-09-20T21:26:08.426Z,10.42
2022-09-20T21:28:37.850Z,10.45
2022-09-20T21:31:06.905Z,10.46
2022-09-20T21:33:36.097Z,10.32
2022-09-20T21:36:04.845Z,10.31
2022-09-20T21:38:34.534Z,10.32
2022-09-20T21:41:04.986Z,10.25
2022-09-20T21:43:32.830Z,10.25
2022-09-20T21:46:00.901Z,10.23
2022-09-20T21:48:29.892Z,10.26
2022-09-20T21:51:05.565Z,10.30
2022-09-20T21:53:35.020Z,10.25
2022-09-20T21:56:04.851Z,10.24
2022-09-20T21:58:32.750Z,10.28
2022-09-20T22:01:02.302Z,10.29
2022-09-20T22:03:34.842Z,10.29
2022-09-20T22:06:08.687Z,10.29
2022-09-20T22:08:39.666Z,10.26
2022-09-20T22:11:12.216Z,10.22
2022-09-20T22:13:43.254Z,10.20
2022-09-20T22:16:12.953Z,10.17
2022-09-20T22:18:42.002Z,10.12
2022-09-20T22:21:12.199Z,10.07
2022-09-20T22:23:42.300Z,9.99
2022-09-20T22:26:13.159Z,9.94
2022-09-20T22:28:41.306Z,9.93
2022-09-20T22:31:11.834Z,9.91
2022-09-20T22:33:43.362Z,9.83
2022-09-20T22:36:14.108Z,9.81
2022-09-20T22:38:43.705Z,9.76
2022-09-20T22:41:12.844Z,9.74
2022-09-20T22:43:41.697Z,9.75
2022-09-20T22:46:11.397Z,9.69
2022-09-20T22:48:40.036Z,9.67
2022-09-20T22:51:09.518Z,9.66
2022-09-20T22:53:38.184Z,9.66
2022-09-20T22:56:10.277Z,9.60
2022-09-20T22:58:40.805Z,9.56
2022-09-20T23:01:11.050Z,9.55
2022-09-20T23:03:39.398Z,9.52
2022-09-20T23:06:15.678Z,9.50
2022-09-20T23:08:43.763Z,9.50
2022-09-20T23:11:13.127Z,9.48
2022-09-20T23:13:40.798Z,9.48
2022-09-20T23:16:13.824Z,9.45
2022-09-20T23:18:41.522Z,9.46
2022-09-20T23:21:09.696Z,9.02
2022-09-20T23:23:37.856Z,8.90
2022-09-20T23:26:08.496Z,8.70
2022-09-20T23:28:39.435Z,8.62
2022-09-20T23:31:09.935Z,8.43
2022-09-20T23:33:37.731Z,8.44
2022-09-20T23:36:07.607Z,8.44
2022-09-20T23:38:35.386Z,8.44
2022-09-20T23:41:04.683Z,8.44
2022-09-20T23:43:32.641Z,8.46
2022-09-20T23:46:02.122Z,8.43
2022-09-20T23:48:30.639Z,8.42
2022-09-20T23:50:58.909Z,8.44
2022-09-20T23:53:26.514Z,8.43
2022-09-20T23:55:54.739Z,8.45
2022-09-20T23:58:22.554Z,8.46
